sensor_id;sensor_type;location;lat;lon;timestamp;P1;durP1;ratioP1;P2;durP2;ratioP2
22973;SDS011;11653;50.848;4.584;2022-11-20T00:00:52;43.83;;;24.40;;
22973;SDS011;11653;50.848;4.584;2022-11-20T00:03:17;49.33;;;25.33;;
22973;SDS011;11653;50.848;4.584;2022-11-20T00:05:43;45.40;;;24.50;;
22973;SDS011;11653;50.848;4.584;2022-11-20T00:08:09;45.23;;;24.90;;
22973;SDS011;11653;50.848;4.584;2022-11-20T00:10:38;43.83;;;24.50;;
22973;SDS011;11653;50.848;4.584;2022-11-20T00:13:05;46.60;;;24.33;;
22973;SDS011;11653;50.848;4.584;2022-11-20T00:15:30;48.33;;;24.57;;
22973;SDS011;11653;50.848;4.584;2022-11-20T00:17:56;47.93;;;26.10;;
22973;SDS011;11653;50.848;4.584;2022-11-20T00:20:22;46.83;;;26.10;;
22973;SDS011;11653;50.848;4.584;2022-11-20T00:22:49;47.30;;;25.67;;
22973;SDS011;11653;50.848;4.584;2022-11-20T00:25:15;45.90;;;24.93;;
22973;SDS011;11653;50.848;4.584;2022-11-20T00:27:41;48.17;;;25.40;;
22973;SDS011;11653;50.848;4.584;2022-11-20T00:30:06;45.87;;;24.60;;
22973;SDS011;11653;50.848;4.584;2022-11-20T00:32:32;45.40;;;25.40;;
22973;SDS011;11653;50.848;4.584;2022-11-20T00:34:58;53.13;;;26.97;;
22973;SDS011;11653;50.848;4.584;2022-11-20T00:37:24;54.23;;;26.93;;
22973;SDS011;11653;50.848;4.584;2022-11-20T00:39:50;53.60;;;26.93;;
22973;SDS011;11653;50.848;4.584;2022-11-20T00:42:16;49.23;;;26.77;;
22973;SDS011;11653;50.848;4.584;2022-11-20T00:44:41;48.77;;;26.53;;
22973;SDS011;11653;50.848;4.584;2022-11-20T00:47:07;53.30;;;26.47;;
22973;SDS011;11653;50.848;4.584;2022-11-20T00:49:33;52.53;;;27.87;;
22973;SDS011;11653;50.848;4.584;2022-11-20T00:51:58;52.33;;;27.87;;
22973;SDS011;11653;50.848;4.584;2022-11-20T00:54:24;52.30;;;26.87;;
22973;SDS011;11653;50.848;4.584;2022-11-20T00:56:49;49.43;;;26.10;;
22973;SDS011;11653;50.848;4.584;2022-11-20T00:59:17;52.00;;;27.53;;
22973;SDS011;11653;50.848;4.584;2022-11-20T01:01:43;56.93;;;27.07;;
22973;SDS011;11653;50.848;4.584;2022-11-20T01:04:09;59.90;;;28.57;;
22973;SDS011;11653;50.848;4.584;2022-11-20T01:06:35;55.60;;;27.67;;
22973;SDS011;11653;50.848;4.584;2022-11-20T01:09:04;57.87;;;28.13;;
22973;SDS011;11653;50.848;4.584;2022-11-20T01:11:33;63.47;;;28.40;;
22973;SDS011;11653;50.848;4.584;2022-11-20T01:14:01;60.40;;;28.43;;
22973;SDS011;11653;50.848;4.584;2022-11-20T01:16:29;55.43;;;27.97;;
22973;SDS011;11653;50.848;4.584;2022-11-20T01:18:58;57.03;;;28.77;;
22973;SDS011;11653;50.848;4.584;2022-11-20T01:21:26;57.93;;;29.23;;
22973;SDS011;11653;50.848;4.584;2022-11-20T01:23:54;68.07;;;31.20;;
22973;SDS011;11653;50.848;4.584;2022-11-20T01:26:39;63.83;;;30.93;;
22973;SDS011;11653;50.848;4.584;2022-11-20T01:29:08;67.13;;;32.33;;
22973;SDS011;11653;50.848;4.584;2022-11-20T01:31:45;70.50;;;31.97;;
22973;SDS011;11653;50.848;4.584;2022-11-20T01:34:14;67.10;;;31.57;;
22973;SDS011;11653;50.848;4.584;2022-11-20T01:36:42;63.73;;;31.10;;
22973;SDS011;11653;50.848;4.584;2022-11-20T01:39:13;63.00;;;30.43;;
22973;SDS011;11653;50.848;4.584;2022-11-20T01:41:41;61.47;;;31.10;;
22973;SDS011;11653;50.848;4.584;2022-11-20T01:47:13;67.87;;;31.37;;
22973;SDS011;11653;50.848;4.584;2022-11-20T01:49:49;65.00;;;31.93;;
22973;SDS011;11653;50.848;4.584;2022-11-20T01:52:36;70.03;;;31.67;;
22973;SDS011;11653;50.848;4.584;2022-11-20T01:55:07;70.10;;;31.87;;
22973;SDS011;11653;50.848;4.584;2022-11-20T01:57:36;66.60;;;32.60;;
22973;SDS011;11653;50.848;4.584;2022-11-20T02:00:12;73.30;;;32.67;;
22973;SDS011;11653;50.848;4.584;2022-11-20T02:02:39;73.70;;;32.60;;
22973;SDS011;11653;50.848;4.584;2022-11-20T02:05:19;67.00;;;32.60;;
22973;SDS011;11653;50.848;4.584;2022-11-20T02:07:56;74.50;;;33.80;;
22973;SDS011;11653;50.848;4.584;2022-11-20T02:10:24;74.23;;;33.00;;
22973;SDS011;11653;50.848;4.584;2022-11-20T02:12:50;72.00;;;32.63;;
22973;SDS011;11653;50.848;4.584;2022-11-20T02:15:35;72.43;;;33.07;;
22973;SDS011;11653;50.848;4.584;2022-11-20T02:18:00;62.70;;;30.07;;
22973;SDS011;11653;50.848;4.584;2022-11-20T02:20:26;70.93;;;32.20;;
22973;SDS011;11653;50.848;4.584;2022-11-20T02:25:24;72.17;;;31.63;;
22973;SDS011;11653;50.848;4.584;2022-11-20T02:27:52;68.63;;;32.60;;
22973;SDS011;11653;50.848;4.584;2022-11-20T02:30:19;72.37;;;32.70;;
22973;SDS011;11653;50.848;4.584;2022-11-20T02:32:45;66.67;;;30.90;;
22973;SDS011;11653;50.848;4.584;2022-11-20T02:37:50;68.47;;;32.00;;
22973;SDS011;11653;50.848;4.584;2022-11-20T02:40:18;79.53;;;32.33;;
22973;SDS011;11653;50.848;4.584;2022-11-20T02:42:44;66.70;;;30.23;;
22973;SDS011;11653;50.848;4.584;2022-11-20T02:45:10;68.77;;;30.97;;
22973;SDS011;11653;50.848;4.584;2022-11-20T02:47:36;73.50;;;31.23;;
22973;SDS011;11653;50.848;4.584;2022-11-20T02:50:01;83.00;;;33.57;;
22973;SDS011;11653;50.848;4.584;2022-11-20T02:52:27;79.30;;;35.53;;
22973;SDS011;11653;50.848;4.584;2022-11-20T02:54:53;85.37;;;34.87;;
22973;SDS011;11653;50.848;4.584;2022-11-20T02:57:19;82.03;;;33.30;;
22973;SDS011;11653;50.848;4.584;2022-11-20T02:59:45;89.27;;;35.10;;
22973;SDS011;11653;50.848;4.584;2022-11-20T03:02:11;78.33;;;33.20;;
22973;SDS011;11653;50.848;4.584;2022-11-20T03:04:36;95.03;;;36.80;;
22973;SDS011;11653;50.848;4.584;2022-11-20T03:07:02;87.10;;;35.83;;
22973;SDS011;11653;50.848;4.584;2022-11-20T03:09:28;88.23;;;35.50;;
22973;SDS011;11653;50.848;4.584;2022-11-20T03:11:54;88.60;;;36.13;;
22973;SDS011;11653;50.848;4.584;2022-11-20T03:14:20;90.90;;;37.40;;
22973;SDS011;11653;50.848;4.584;2022-11-20T03:16:46;92.97;;;36.90;;
22973;SDS011;11653;50.848;4.584;2022-11-20T03:19:11;80.53;;;35.57;;
22973;SDS011;11653;50.848;4.584;2022-11-20T03:21:37;77.10;;;35.47;;
22973;SDS011;11653;50.848;4.584;2022-11-20T03:24:03;84.47;;;35.87;;
22973;SDS011;11653;50.848;4.584;2022-11-20T03:26:29;85.37;;;34.57;;
22973;SDS011;11653;50.848;4.584;2022-11-20T03:28:56;90.80;;;38.20;;
22973;SDS011;11653;50.848;4.584;2022-11-20T03:31:27;80.30;;;35.30;;
22973;SDS011;11653;50.848;4.584;2022-11-20T03:33:56;77.27;;;34.90;;
22973;SDS011;11653;50.848;4.584;2022-11-20T03:36:22;83.20;;;36.00;;
22973;SDS011;11653;50.848;4.584;2022-11-20T03:38:48;91.63;;;36.67;;
22973;SDS011;11653;50.848;4.584;2022-11-20T03:41:15;84.67;;;34.43;;
22973;SDS011;11653;50.848;4.584;2022-11-20T03:43:49;90.77;;;34.10;;
22973;SDS011;11653;50.848;4.584;2022-11-20T03:46:16;80.10;;;35.33;;
22973;SDS011;11653;50.848;4.584;2022-11-20T03:48:42;82.20;;;35.10;;
22973;SDS011;11653;50.848;4.584;2022-11-20T03:51:09;76.33;;;35.00;;
22973;SDS011;11653;50.848;4.584;2022-11-20T03:53:39;86.10;;;34.47;;
22973;SDS011;11653;50.848;4.584;2022-11-20T03:56:07;84.77;;;34.63;;
22973;SDS011;11653;50.848;4.584;2022-11-20T03:58:34;80.90;;;33.40;;
22973;SDS011;11653;50.848;4.584;2022-11-20T04:01:13;82.17;;;34.50;;
22973;SDS011;11653;50.848;4.584;2022-11-20T04:03:41;75.53;;;31.73;;
22973;SDS011;11653;50.848;4.584;2022-11-20T04:06:18;77.87;;;32.53;;
22973;SDS011;11653;50.848;4.584;2022-11-20T04:09:02;75.07;;;32.30;;
22973;SDS011;11653;50.848;4.584;2022-11-20T04:11:35;78.23;;;33.17;;
22973;SDS011;11653;50.848;4.584;2022-11-20T04:14:03;69.70;;;30.13;;
22973;SDS011;11653;50.848;4.584;2022-11-20T04:16:32;70.17;;;31.77;;
22973;SDS011;11653;50.848;4.584;2022-11-20T04:19:00;71.63;;;29.97;;
22973;SDS011;11653;50.848;4.584;2022-11-20T04:21:27;68.57;;;30.97;;
22973;SDS011;11653;50.848;4.584;2022-11-20T04:23:54;72.07;;;29.90;;
22973;SDS011;11653;50.848;4.584;2022-11-20T04:26:21;61.37;;;28.17;;
22973;SDS011;11653;50.848;4.584;2022-11-20T04:28:48;63.60;;;28.77;;
22973;SDS011;11653;50.848;4.584;2022-11-20T04:31:15;58.63;;;27.20;;
22973;SDS011;11653;50.848;4.584;2022-11-20T04:33:42;62.73;;;28.87;;
22973;SDS011;11653;50.848;4.584;2022-11-20T04:36:12;54.27;;;25.30;;
22973;SDS011;11653;50.848;4.584;2022-11-20T04:38:42;54.70;;;25.90;;
22973;SDS011;11653;50.848;4.584;2022-11-20T04:41:15;59.27;;;27.53;;
22973;SDS011;11653;50.848;4.584;2022-11-20T04:43:46;64.63;;;27.27;;
22973;SDS011;11653;50.848;4.584;2022-11-20T04:46:16;57.07;;;25.60;;
22973;SDS011;11653;50.848;4.584;2022-11-20T04:48:43;57.33;;;26.93;;
22973;SDS011;11653;50.848;4.584;2022-11-20T04:51:08;60.70;;;26.03;;
22973;SDS011;11653;50.848;4.584;2022-11-20T04:53:34;57.57;;;25.73;;
22973;SDS011;11653;50.848;4.584;2022-11-20T04:56:00;58.63;;;26.70;;
22973;SDS011;11653;50.848;4.584;2022-11-20T04:58:28;54.67;;;24.63;;
22973;SDS011;11653;50.848;4.584;2022-11-20T05:01:01;54.13;;;24.07;;
22973;SDS011;11653;50.848;4.584;2022-11-20T05:03:28;54.80;;;24.53;;
22973;SDS011;11653;50.848;4.584;2022-11-20T05:05:54;54.40;;;25.40;;
22973;SDS011;11653;50.848;4.584;2022-11-20T05:08:20;53.43;;;24.77;;
22973;SDS011;11653;50.848;4.584;2022-11-20T05:10:45;55.07;;;24.77;;
22973;SDS011;11653;50.848;4.584;2022-11-20T05:13:12;56.07;;;24.27;;
22973;SDS011;11653;50.848;4.584;2022-11-20T05:15:38;54.90;;;24.90;;
22973;SDS011;11653;50.848;4.584;2022-11-20T05:18:03;54.13;;;23.97;;
22973;SDS011;11653;50.848;4.584;2022-11-20T05:20:29;59.87;;;24.43;;
22973;SDS011;11653;50.848;4.584;2022-11-20T05:22:58;57.20;;;25.33;;
22973;SDS011;11653;50.848;4.584;2022-11-20T05:25:23;60.83;;;24.87;;
22973;SDS011;11653;50.848;4.584;2022-11-20T05:27:49;58.60;;;23.90;;
22973;SDS011;11653;50.848;4.584;2022-11-20T05:30:15;53.37;;;22.97;;
22973;SDS011;11653;50.848;4.584;2022-11-20T05:32:40;56.97;;;24.17;;
22973;SDS011;11653;50.848;4.584;2022-11-20T05:35:06;56.97;;;23.53;;
22973;SDS011;11653;50.848;4.584;2022-11-20T05:37:32;58.80;;;23.77;;
22973;SDS011;11653;50.848;4.584;2022-11-20T05:39:57;58.00;;;24.47;;
22973;SDS011;11653;50.848;4.584;2022-11-20T05:42:23;55.07;;;23.77;;
22973;SDS011;11653;50.848;4.584;2022-11-20T05:44:55;62.90;;;25.73;;
22973;SDS011;11653;50.848;4.584;2022-11-20T05:47:21;62.20;;;25.97;;
22973;SDS011;11653;50.848;4.584;2022-11-20T05:49:47;59.63;;;24.10;;
22973;SDS011;11653;50.848;4.584;2022-11-20T05:52:13;56.57;;;23.90;;
22973;SDS011;11653;50.848;4.584;2022-11-20T05:54:38;54.27;;;23.43;;
22973;SDS011;11653;50.848;4.584;2022-11-20T05:57:04;55.57;;;24.77;;
22973;SDS011;11653;50.848;4.584;2022-11-20T05:59:30;58.23;;;24.83;;
22973;SDS011;11653;50.848;4.584;2022-11-20T06:01:55;65.20;;;26.50;;
22973;SDS011;11653;50.848;4.584;2022-11-20T06:04:21;65.80;;;26.80;;
22973;SDS011;11653;50.848;4.584;2022-11-20T06:06:47;67.30;;;26.57;;
22973;SDS011;11653;50.848;4.584;2022-11-20T06:09:12;73.43;;;27.43;;
22973;SDS011;11653;50.848;4.584;2022-11-20T06:11:38;75.70;;;27.57;;
22973;SDS011;11653;50.848;4.584;2022-11-20T06:14:04;80.97;;;27.80;;
22973;SDS011;11653;50.848;4.584;2022-11-20T06:16:29;87.33;;;30.57;;
22973;SDS011;11653;50.848;4.584;2022-11-20T06:18:55;78.77;;;28.57;;
22973;SDS011;11653;50.848;4.584;2022-11-20T06:21:21;75.23;;;28.60;;
22973;SDS011;11653;50.848;4.584;2022-11-20T06:23:48;79.93;;;29.13;;
22973;SDS011;11653;50.848;4.584;2022-11-20T06:26:18;70.13;;;26.93;;
22973;SDS011;11653;50.848;4.584;2022-11-20T06:28:48;80.23;;;28.77;;
22973;SDS011;11653;50.848;4.584;2022-11-20T06:31:15;77.33;;;27.30;;
22973;SDS011;11653;50.848;4.584;2022-11-20T06:33:43;84.80;;;29.60;;
22973;SDS011;11653;50.848;4.584;2022-11-20T06:36:09;85.47;;;29.10;;
22973;SDS011;11653;50.848;4.584;2022-11-20T06:38:36;82.57;;;28.67;;
22973;SDS011;11653;50.848;4.584;2022-11-20T06:41:03;91.43;;;31.23;;
22973;SDS011;11653;50.848;4.584;2022-11-20T06:43:35;102.77;;;30.50;;
22973;SDS011;11653;50.848;4.584;2022-11-20T06:46:01;94.37;;;29.80;;
22973;SDS011;11653;50.848;4.584;2022-11-20T06:48:27;102.93;;;32.27;;
22973;SDS011;11653;50.848;4.584;2022-11-20T06:50:53;91.90;;;30.30;;
22973;SDS011;11653;50.848;4.584;2022-11-20T06:53:19;110.23;;;31.77;;
22973;SDS011;11653;50.848;4.584;2022-11-20T06:55:46;110.67;;;32.60;;
22973;SDS011;11653;50.848;4.584;2022-11-20T06:58:13;98.80;;;30.60;;
22973;SDS011;11653;50.848;4.584;2022-11-20T07:00:40;104.20;;;30.70;;
22973;SDS011;11653;50.848;4.584;2022-11-20T07:03:06;96.53;;;30.83;;
22973;SDS011;11653;50.848;4.584;2022-11-20T07:05:33;94.57;;;30.77;;
22973;SDS011;11653;50.848;4.584;2022-11-20T07:07:59;103.80;;;31.40;;
22973;SDS011;11653;50.848;4.584;2022-11-20T07:10:25;104.40;;;33.93;;
22973;SDS011;11653;50.848;4.584;2022-11-20T07:12:52;156.40;;;52.83;;
22973;SDS011;11653;50.848;4.584;2022-11-20T07:15:18;104.37;;;34.20;;
22973;SDS011;11653;50.848;4.584;2022-11-20T07:17:45;95.57;;;31.30;;
22973;SDS011;11653;50.848;4.584;2022-11-20T07:20:11;114.03;;;32.63;;
22973;SDS011;11653;50.848;4.584;2022-11-20T07:22:37;104.83;;;33.57;;
22973;SDS011;11653;50.848;4.584;2022-11-20T07:25:03;105.73;;;32.97;;
22973;SDS011;11653;50.848;4.584;2022-11-20T07:27:29;99.43;;;32.60;;
22973;SDS011;11653;50.848;4.584;2022-11-20T07:29:55;114.70;;;31.73;;
22973;SDS011;11653;50.848;4.584;2022-11-20T07:32:22;111.03;;;32.00;;
22973;SDS011;11653;50.848;4.584;2022-11-20T07:34:48;103.83;;;30.93;;
22973;SDS011;11653;50.848;4.584;2022-11-20T07:37:14;105.40;;;32.47;;
22973;SDS011;11653;50.848;4.584;2022-11-20T07:39:40;100.30;;;31.77;;
22973;SDS011;11653;50.848;4.584;2022-11-20T07:42:06;103.33;;;32.37;;
22973;SDS011;11653;50.848;4.584;2022-11-20T07:44:33;109.23;;;33.33;;
22973;SDS011;11653;50.848;4.584;2022-11-20T07:46:59;105.47;;;34.20;;
22973;SDS011;11653;50.848;4.584;2022-11-20T07:49:25;107.77;;;33.57;;
22973;SDS011;11653;50.848;4.584;2022-11-20T07:51:51;106.50;;;32.17;;
22973;SDS011;11653;50.848;4.584;2022-11-20T07:54:18;105.30;;;31.97;;
22973;SDS011;11653;50.848;4.584;2022-11-20T07:56:45;109.87;;;33.60;;
22973;SDS011;11653;50.848;4.584;2022-11-20T07:59:11;97.50;;;31.40;;
22973;SDS011;11653;50.848;4.584;2022-11-20T08:01:37;108.10;;;31.07;;
22973;SDS011;11653;50.848;4.584;2022-11-20T08:04:03;109.53;;;34.30;;
22973;SDS011;11653;50.848;4.584;2022-11-20T08:06:28;99.27;;;33.23;;
22973;SDS011;11653;50.848;4.584;2022-11-20T08:08:54;95.17;;;31.03;;
22973;SDS011;11653;50.848;4.584;2022-11-20T08:11:20;99.60;;;34.33;;
22973;SDS011;11653;50.848;4.584;2022-11-20T08:14:04;91.90;;;30.87;;
22973;SDS011;11653;50.848;4.584;2022-11-20T08:16:45;97.93;;;30.10;;
22973;SDS011;11653;50.848;4.584;2022-11-20T08:19:12;99.83;;;30.50;;
22973;SDS011;11653;50.848;4.584;2022-11-20T08:21:39;93.93;;;29.77;;
22973;SDS011;11653;50.848;4.584;2022-11-20T08:24:05;91.90;;;30.63;;
22973;SDS011;11653;50.848;4.584;2022-11-20T08:26:32;101.70;;;31.97;;
22973;SDS011;11653;50.848;4.584;2022-11-20T08:28:58;112.77;;;35.53;;
22973;SDS011;11653;50.848;4.584;2022-11-20T08:31:24;108.87;;;34.17;;
22973;SDS011;11653;50.848;4.584;2022-11-20T08:33:51;105.87;;;34.77;;
22973;SDS011;11653;50.848;4.584;2022-11-20T08:36:17;93.23;;;31.93;;
22973;SDS011;11653;50.848;4.584;2022-11-20T08:38:48;96.80;;;32.53;;
22973;SDS011;11653;50.848;4.584;2022-11-20T08:41:17;106.33;;;33.70;;
22973;SDS011;11653;50.848;4.584;2022-11-20T08:43:57;104.90;;;33.23;;
22973;SDS011;11653;50.848;4.584;2022-11-20T08:46:34;103.80;;;33.43;;
22973;SDS011;11653;50.848;4.584;2022-11-20T08:49:10;93.73;;;30.40;;
22973;SDS011;11653;50.848;4.584;2022-11-20T08:51:37;89.37;;;30.70;;
22973;SDS011;11653;50.848;4.584;2022-11-20T08:54:03;101.33;;;34.10;;
22973;SDS011;11653;50.848;4.584;2022-11-20T08:56:30;102.43;;;32.63;;
22973;SDS011;11653;50.848;4.584;2022-11-20T08:58:56;97.87;;;32.40;;
22973;SDS011;11653;50.848;4.584;2022-11-20T09:01:24;94.97;;;30.40;;
22973;SDS011;11653;50.848;4.584;2022-11-20T09:03:51;100.20;;;34.20;;
22973;SDS011;11653;50.848;4.584;2022-11-20T09:06:16;92.47;;;32.67;;
22973;SDS011;11653;50.848;4.584;2022-11-20T09:08:42;107.27;;;35.03;;
22973;SDS011;11653;50.848;4.584;2022-11-20T09:11:08;100.03;;;32.97;;
22973;SDS011;11653;50.848;4.584;2022-11-20T09:13:34;99.43;;;35.33;;
22973;SDS011;11653;50.848;4.584;2022-11-20T09:16:10;95.20;;;34.87;;
22973;SDS011;11653;50.848;4.584;2022-11-20T09:18:35;98.03;;;32.10;;
22973;SDS011;11653;50.848;4.584;2022-11-20T09:21:03;91.70;;;31.77;;
22973;SDS011;11653;50.848;4.584;2022-11-20T09:23:35;88.43;;;30.60;;
22973;SDS011;11653;50.848;4.584;2022-11-20T09:26:02;94.27;;;29.77;;
22973;SDS011;11653;50.848;4.584;2022-11-20T09:28:33;93.40;;;30.03;;
22973;SDS011;11653;50.848;4.584;2022-11-20T09:30:59;93.33;;;30.83;;
22973;SDS011;11653;50.848;4.584;2022-11-20T09:33:24;72.57;;;26.30;;
22973;SDS011;11653;50.848;4.584;2022-11-20T09:35:50;79.47;;;27.47;;
22973;SDS011;11653;50.848;4.584;2022-11-20T09:38:16;74.30;;;27.47;;
22973;SDS011;11653;50.848;4.584;2022-11-20T09:40:47;74.80;;;27.27;;
22973;SDS011;11653;50.848;4.584;2022-11-20T09:46:17;72.57;;;25.53;;
22973;SDS011;11653;50.848;4.584;2022-11-20T09:51:59;70.20;;;25.80;;
22973;SDS011;11653;50.848;4.584;2022-11-20T09:54:28;68.97;;;25.90;;
22973;SDS011;11653;50.848;4.584;2022-11-20T09:57:09;73.37;;;26.33;;
22973;SDS011;11653;50.848;4.584;2022-11-20T09:59:45;64.03;;;25.23;;
22973;SDS011;11653;50.848;4.584;2022-11-20T10:02:37;77.17;;;26.20;;
22973;SDS011;11653;50.848;4.584;2022-11-20T10:07:44;67.63;;;28.00;;
22973;SDS011;11653;50.848;4.584;2022-11-20T10:11:20;61.00;;;25.97;;
22973;SDS011;11653;50.848;4.584;2022-11-20T10:19:13;49.43;;;21.60;;
22973;SDS011;11653;50.848;4.584;2022-11-20T10:30:14;47.23;;;20.37;;
22973;SDS011;11653;50.848;4.584;2022-11-20T10:32:48;50.00;;;21.90;;
22973;SDS011;11653;50.848;4.584;2022-11-20T10:38:31;42.80;;;17.33;;
22973;SDS011;11653;50.848;4.584;2022-11-20T10:41:02;40.83;;;20.20;;
22973;SDS011;11653;50.848;4.584;2022-11-20T10:43:49;42.73;;;17.43;;
22973;SDS011;11653;50.848;4.584;2022-11-20T10:46:19;33.43;;;16.80;;
22973;SDS011;11653;50.848;4.584;2022-11-20T10:48:49;27.60;;;14.57;;
22973;SDS011;11653;50.848;4.584;2022-11-20T11:01:55;17.07;;;8.83;;
22973;SDS011;11653;50.848;4.584;2022-11-20T11:09:41;15.83;;;6.60;;
22973;SDS011;11653;50.848;4.584;2022-11-20T11:12:11;12.23;;;6.20;;
22973;SDS011;11653;50.848;4.584;2022-11-20T11:14:44;11.47;;;5.23;;
22973;SDS011;11653;50.848;4.584;2022-11-20T11:17:19;11.73;;;5.60;;
22973;SDS011;11653;50.848;4.584;2022-11-20T11:20:01;9.20;;;4.83;;
22973;SDS011;11653;50.848;4.584;2022-11-20T11:22:42;7.67;;;4.70;;
22973;SDS011;11653;50.848;4.584;2022-11-20T11:25:23;10.90;;;4.37;;
22973;SDS011;11653;50.848;4.584;2022-11-20T11:27:50;8.67;;;3.83;;
22973;SDS011;11653;50.848;4.584;2022-11-20T11:30:17;12.40;;;4.30;;
22973;SDS011;11653;50.848;4.584;2022-11-20T11:32:44;12.43;;;3.60;;
22973;SDS011;11653;50.848;4.584;2022-11-20T11:37:53;13.73;;;4.10;;
22973;SDS011;11653;50.848;4.584;2022-11-20T11:40:27;11.37;;;5.50;;
22973;SDS011;11653;50.848;4.584;2022-11-20T11:42:57;9.27;;;3.70;;
22973;SDS011;11653;50.848;4.584;2022-11-20T11:45:26;8.50;;;3.80;;
22973;SDS011;11653;50.848;4.584;2022-11-20T11:47:52;11.17;;;4.93;;
22973;SDS011;11653;50.848;4.584;2022-11-20T11:50:22;11.27;;;4.77;;
22973;SDS011;11653;50.848;4.584;2022-11-20T12:04:02;9.10;;;3.70;;
22973;SDS011;11653;50.848;4.584;2022-11-20T12:06:50;11.77;;;5.70;;
22973;SDS011;11653;50.848;4.584;2022-11-20T12:09:21;8.90;;;4.23;;
22973;SDS011;11653;50.848;4.584;2022-11-20T12:11:54;7.20;;;4.87;;
22973;SDS011;11653;50.848;4.584;2022-11-20T12:14:48;9.93;;;3.40;;
22973;SDS011;11653;50.848;4.584;2022-11-20T12:17:17;10.47;;;4.37;;
22973;SDS011;11653;50.848;4.584;2022-11-20T12:19:44;9.10;;;3.70;;
22973;SDS011;11653;50.848;4.584;2022-11-20T12:30:20;10.83;;;5.87;;
22973;SDS011;11653;50.848;4.584;2022-11-20T12:41:46;11.60;;;6.70;;
22973;SDS011;11653;50.848;4.584;2022-11-20T12:44:57;10.97;;;6.93;;
22973;SDS011;11653;50.848;4.584;2022-11-20T12:56:31;7.17;;;4.73;;
22973;SDS011;11653;50.848;4.584;2022-11-20T13:02:23;11.50;;;5.27;;
22973;SDS011;11653;50.848;4.584;2022-11-20T13:07:43;12.40;;;5.50;;
22973;SDS011;11653;50.848;4.584;2022-11-20T13:10:16;13.23;;;5.17;;
22973;SDS011;11653;50.848;4.584;2022-11-20T13:13:04;11.57;;;4.60;;
22973;SDS011;11653;50.848;4.584;2022-11-20T13:15:43;12.30;;;4.47;;
22973;SDS011;11653;50.848;4.584;2022-11-20T13:18:29;10.43;;;4.13;;
22973;SDS011;11653;50.848;4.584;2022-11-20T13:21:12;10.07;;;5.00;;
22973;SDS011;11653;50.848;4.584;2022-11-20T13:23:42;9.50;;;4.10;;
22973;SDS011;11653;50.848;4.584;2022-11-20T13:26:19;9.10;;;3.60;;
22973;SDS011;11653;50.848;4.584;2022-11-20T13:28:47;9.97;;;3.40;;
22973;SDS011;11653;50.848;4.584;2022-11-20T13:31:31;8.93;;;3.87;;
22973;SDS011;11653;50.848;4.584;2022-11-20T13:33:59;9.57;;;3.90;;
22973;SDS011;11653;50.848;4.584;2022-11-20T13:36:29;7.47;;;4.30;;
22973;SDS011;11653;50.848;4.584;2022-11-20T13:38:57;8.77;;;4.17;;
22973;SDS011;11653;50.848;4.584;2022-11-20T13:41:28;9.17;;;4.63;;
22973;SDS011;11653;50.848;4.584;2022-11-20T13:49:07;10.30;;;4.70;;
22973;SDS011;11653;50.848;4.584;2022-11-20T13:54:13;8.73;;;6.13;;
22973;SDS011;11653;50.848;4.584;2022-11-20T14:02:42;8.43;;;5.30;;
22973;SDS011;11653;50.848;4.584;2022-11-20T14:08:06;7.93;;;5.20;;
22973;SDS011;11653;50.848;4.584;2022-11-20T14:10:38;7.60;;;4.57;;
22973;SDS011;11653;50.848;4.584;2022-11-20T14:13:15;8.67;;;5.10;;
22973;SDS011;11653;50.848;4.584;2022-11-20T14:15:43;9.33;;;4.77;;
22973;SDS011;11653;50.848;4.584;2022-11-20T14:18:18;6.63;;;4.10;;
22973;SDS011;11653;50.848;4.584;2022-11-20T14:20:45;6.43;;;3.93;;
22973;SDS011;11653;50.848;4.584;2022-11-20T14:23:11;8.43;;;3.50;;
22973;SDS011;11653;50.848;4.584;2022-11-20T14:25:37;7.33;;;4.30;;
22973;SDS011;11653;50.848;4.584;2022-11-20T14:28:11;6.83;;;4.30;;
22973;SDS011;11653;50.848;4.584;2022-11-20T14:30:48;5.73;;;4.00;;
22973;SDS011;11653;50.848;4.584;2022-11-20T14:33:14;7.43;;;3.40;;
22973;SDS011;11653;50.848;4.584;2022-11-20T14:35:44;4.50;;;3.20;;
22973;SDS011;11653;50.848;4.584;2022-11-20T14:38:16;4.80;;;3.20;;
22973;SDS011;11653;50.848;4.584;2022-11-20T14:40:44;6.83;;;4.37;;
22973;SDS011;11653;50.848;4.584;2022-11-20T14:45:42;3.70;;;2.70;;
22973;SDS011;11653;50.848;4.584;2022-11-20T14:48:08;4.13;;;2.70;;
22973;SDS011;11653;50.848;4.584;2022-11-20T14:50:37;2.70;;;2.47;;
22973;SDS011;11653;50.848;4.584;2022-11-20T14:53:04;4.80;;;2.40;;
22973;SDS011;11653;50.848;4.584;2022-11-20T14:58:01;4.73;;;2.53;;
22973;SDS011;11653;50.848;4.584;2022-11-20T15:00:30;6.20;;;2.53;;
22973;SDS011;11653;50.848;4.584;2022-11-20T15:02:57;2.97;;;2.60;;
22973;SDS011;11653;50.848;4.584;2022-11-20T15:05:24;7.33;;;3.40;;
22973;SDS011;11653;50.848;4.584;2022-11-20T15:08:06;6.10;;;3.27;;
22973;SDS011;11653;50.848;4.584;2022-11-20T15:10:34;5.10;;;3.97;;
22973;SDS011;11653;50.848;4.584;2022-11-20T15:13:01;5.43;;;4.23;;
22973;SDS011;11653;50.848;4.584;2022-11-20T15:15:41;4.10;;;3.70;;
22973;SDS011;11653;50.848;4.584;2022-11-20T15:18:17;10.33;;;6.93;;
22973;SDS011;11653;50.848;4.584;2022-11-20T15:20:44;8.50;;;4.77;;
22973;SDS011;11653;50.848;4.584;2022-11-20T15:23:11;6.93;;;4.60;;
22973;SDS011;11653;50.848;4.584;2022-11-20T15:25:39;11.80;;;5.30;;
22973;SDS011;11653;50.848;4.584;2022-11-20T15:28:11;9.67;;;5.57;;
22973;SDS011;11653;50.848;4.584;2022-11-20T15:30:46;8.53;;;4.87;;
22973;SDS011;11653;50.848;4.584;2022-11-20T15:33:14;7.80;;;4.03;;
22973;SDS011;11653;50.848;4.584;2022-11-20T15:35:40;8.57;;;5.07;;
22973;SDS011;11653;50.848;4.584;2022-11-20T15:38:06;7.13;;;5.10;;
22973;SDS011;11653;50.848;4.584;2022-11-20T15:40:32;8.60;;;5.10;;
22973;SDS011;11653;50.848;4.584;2022-11-20T15:42:58;13.90;;;5.50;;
22973;SDS011;11653;50.848;4.584;2022-11-20T15:45:41;9.77;;;6.43;;
22973;SDS011;11653;50.848;4.584;2022-11-20T15:48:17;7.03;;;5.00;;
22973;SDS011;11653;50.848;4.584;2022-11-20T15:50:56;8.50;;;5.10;;
22973;SDS011;11653;50.848;4.584;2022-11-20T15:53:40;7.77;;;4.90;;
22973;SDS011;11653;50.848;4.584;2022-11-20T15:56:14;12.30;;;6.00;;
22973;SDS011;11653;50.848;4.584;2022-11-20T15:58:40;9.50;;;5.10;;
22973;SDS011;11653;50.848;4.584;2022-11-20T16:01:10;7.63;;;5.43;;
22973;SDS011;11653;50.848;4.584;2022-11-20T16:03:38;11.23;;;6.00;;
22973;SDS011;11653;50.848;4.584;2022-11-20T16:06:03;15.07;;;5.70;;
22973;SDS011;11653;50.848;4.584;2022-11-20T16:08:29;11.20;;;5.67;;
22973;SDS011;11653;50.848;4.584;2022-11-20T16:10:55;11.47;;;5.77;;
22973;SDS011;11653;50.848;4.584;2022-11-20T16:13:21;13.93;;;6.67;;
22973;SDS011;11653;50.848;4.584;2022-11-20T16:16:06;13.83;;;6.20;;
22973;SDS011;11653;50.848;4.584;2022-11-20T16:18:36;8.13;;;5.57;;
22973;SDS011;11653;50.848;4.584;2022-11-20T16:21:02;17.13;;;5.63;;
22973;SDS011;11653;50.848;4.584;2022-11-20T16:23:28;12.47;;;5.47;;
22973;SDS011;11653;50.848;4.584;2022-11-20T16:25:54;15.90;;;5.27;;
22973;SDS011;11653;50.848;4.584;2022-11-20T16:28:19;17.50;;;5.87;;
22973;SDS011;11653;50.848;4.584;2022-11-20T16:30:45;12.37;;;5.53;;
22973;SDS011;11653;50.848;4.584;2022-11-20T16:33:12;12.10;;;5.10;;
22973;SDS011;11653;50.848;4.584;2022-11-20T16:35:39;14.57;;;4.63;;